• Join FlightAware (Why Join?)
  • Login
  • US Flag 
08:03PM EDT


 

Airport Tracker/Info


-or-


 

Live Flight TrackerFlight Track Log ✈ PT-TCV ✈ 02-May-2013 ✈ KFLL - SBEG / MAO

Flight Track Log - Related Links

Times and Time Zones

All times are in EDT time to prevent confusion due to time zone crossing. See the PT-TCV flight status page for this flight to view local times or setup timezone preferences in your user account.

Time Position Orientation Groundspeed Altitude Reporting Facility
EDT Latitude Longitude Course Direction KTS MPH feet Rate Location/Type
07:24AM 26.0719 -80.1758 277° West 174 200 600  Level Miami Center
07:25AM 26.0753 -80.2083 277° West 189 217 1,900 1,560 Climbing Miami Center
07:26AM 26.0931 -80.2597 291° West 230 265 3,000 840 Climbing Miami Center
07:27AM 26.1617 -80.2664 355° North 225 259 3,600 1,140 Climbing Miami Center
07:27AM 26.2019 -80.2514 18° North 237 273 4,900 2,220 Climbing Miami Center
07:28AM 26.2253 -80.2333 35° Northeast 244 281 6,100 1,800 Climbing Miami Center
07:28AM 26.2492 -80.1969 54° Northeast 288 331 6,700 2,220 Climbing Miami Center
07:29AM 26.2522 -80.1439 86° East 297 342 8,600 2,580 Climbing Miami Center
07:29AM 26.2572 -80.1069 81° East 294 338 9,300 2,040 Climbing Miami Center
07:30AM 26.2633 -80.0261 85° East 376 433 11,300 1,320 Climbing Miami Center
07:31AM 26.2742 -79.9081 84° East 350 403 12,000 300 Climbing Miami Center
07:32AM 26.2847 -79.7994 84° East 373 429 12,000 600 Level Miami Center
07:33AM 26.2956 -79.6722 85° East 379 436 13,300 1,740 Climbing Miami Center
07:34AM 26.3039 -79.5683 85° East 379 436 15,500 1,980 Climbing Miami Center
07:35AM 26.2517 -79.4558 117° Southeast 362 417 17,300 1,800 Climbing Miami Center
07:36AM 26.1797 -79.3781 136° Southeast 356 410 19,200 1,560 Climbing Miami Center
07:37AM 26.1017 -79.2975 137° Southeast 362 417 20,500 1,320 Climbing Miami Center
07:38AM 26.0194 -79.2128 137° Southeast 383 441 21,900 1,260 Climbing Miami Center
07:39AM 25.9372 -79.1303 138° Southeast 399 459 23,100 1,500 Climbing Miami Center
07:40AM 25.8356 -79.0844 158° South 399 459 25,000 1,680 Climbing Miami Center
07:41AM 25.7317 -79.0478 162° South 393 452 26,500 1,320 Climbing Miami Center
07:42AM 25.6236 -79.0114 163° South 393 452 27,700 1,200 Climbing Miami Center
07:43AM 25.5197 -78.9750 162° South 393 452 29,000 1,140 Climbing Miami Center
07:44AM 25.4364 -78.9483 164° South 398 458 30,000 1,140 Climbing Miami Center
07:45AM 25.3181 -78.9072 163° South 398 458 31,300 1,200 Climbing Miami Center
07:46AM 25.2075 -78.8756 165° South 398 458 32,500 1,140 Climbing Miami Center
07:47AM 25.1017 -78.8369 162° South 398 458 33,600 960 Climbing Miami Center
07:48AM 24.9933 -78.8008 163° South 398 458 34,500 900 Climbing Miami Center
07:49AM 24.8853 -78.7625 162° South 404 465 35,400 840 Climbing Miami Center
07:50AM 24.7811 -78.7267 163° South 404 465 36,200 720 Climbing Miami Center
07:51AM 24.6731 -78.6906 163° South 399 459 36,900 660 Climbing Miami Center
07:52AM 24.5647 -78.6547 163° South 399 459 37,600 600 Climbing Miami Center
07:53AM 24.4606 -78.6192 163° South 399 459 38,200 600 Climbing Miami Center
07:54AM 24.3544 -78.5833 163° South 399 459 38,800 360 Climbing Miami Center
07:55AM 24.2506 -78.5456 162° South 393 452 39,000 60 Climbing Miami Center
07:56AM 24.1403 -78.5075 163° South 398 458 39,000  Level Miami Center
07:57AM 24.0319 -78.4697 162° South 398 458 39,000  Level Miami Center
07:59AM 23.9311 -78.3949 144° Southeast  Level FlightAware Approximate
08:06AM 23.2631 -77.8734 144° Southeast  Level FlightAware Approximate
08:07AM 23.1674 -77.7995 145° Southeast  Level FlightAware Approximate
08:08AM 23.0716 -77.7257 145° Southeast  Level FlightAware Approximate
08:09AM 22.9763 -77.6514 144° Southeast  Level FlightAware Approximate
08:10AM 22.8814 -77.5764 144° Southeast  Level FlightAware Approximate
08:11AM 22.7865 -77.5015 144° Southeast  Level FlightAware Approximate
08:12AM 22.6916 -77.4267 144° Southeast  Level FlightAware Approximate
08:13AM 22.5967 -77.3520 144° Southeast  Level FlightAware Approximate
08:14AM 22.5017 -77.2773 144° Southeast  Level FlightAware Approximate
08:15AM 22.4067 -77.2028 144° Southeast  Level FlightAware Approximate
08:16AM 22.3117 -77.1283 144° Southeast  Level FlightAware Approximate
08:17AM 22.2167 -77.0540 144° Southeast  Level FlightAware Approximate
08:18AM 22.1216 -76.9797 144° Southeast  Level FlightAware Approximate
08:19AM 22.0264 -76.9056 144° Southeast  Level FlightAware Approximate
08:20AM 21.9313 -76.8316 144° Southeast  Level FlightAware Approximate
08:21AM 21.8361 -76.7576 144° Southeast  Level FlightAware Approximate
08:22AM 21.7406 -76.6842 145° Southeast  Level FlightAware Approximate
08:23AM 21.6446 -76.6115 145° Southeast  Level FlightAware Approximate
08:24AM 21.5487 -76.5388 145° Southeast  Level FlightAware Approximate
08:25AM 21.4527 -76.4663 145° Southeast  Level FlightAware Approximate
08:26AM 21.3566 -76.3939 145° Southeast  Level FlightAware Approximate
08:27AM 21.2606 -76.3215 145° Southeast  Level FlightAware Approximate
08:28AM 21.1645 -76.2493 145° Southeast  Level FlightAware Approximate
08:29AM 21.0684 -76.1771 145° Southeast  Level FlightAware Approximate
08:30AM 20.9722 -76.1051 145° Southeast  Level FlightAware Approximate
08:31AM 20.8760 -76.0331 145° Southeast  Level FlightAware Approximate
08:32AM 20.7798 -75.9612 145° Southeast  Level FlightAware Approximate
08:33AM 20.6836 -75.8895 145° Southeast  Level FlightAware Approximate
08:34AM 20.5873 -75.8178 145° Southeast  Level FlightAware Approximate
08:35AM 20.4910 -75.7462 145° Southeast  Level FlightAware Approximate
08:36AM 20.3947 -75.6747 145° Southeast  Level FlightAware Approximate
08:37AM 20.2983 -75.6032 145° Southeast  Level FlightAware Approximate
08:38AM 20.2019 -75.5319 145° Southeast  Level FlightAware Approximate
08:39AM 20.1055 -75.4606 145° Southeast  Level FlightAware Approximate
08:40AM 20.0091 -75.3895 145° Southeast  Level FlightAware Approximate
08:41AM 19.9126 -75.3184 145° Southeast  Level FlightAware Approximate
08:42AM 19.8161 -75.2474 145° Southeast  Level FlightAware Approximate
08:43AM 19.7196 -75.1765 145° Southeast  Level FlightAware Approximate
08:44AM 19.6230 -75.1057 145° Southeast  Level FlightAware Approximate
08:45AM 19.5264 -75.0350 145° Southeast  Level FlightAware Approximate
08:46AM 19.4298 -74.9643 145° Southeast  Level FlightAware Approximate
08:47AM 19.3332 -74.8938 145° Southeast  Level FlightAware Approximate
08:48AM 19.2365 -74.8233 145° Southeast  Level FlightAware Approximate
08:49AM 19.1398 -74.7529 145° Southeast  Level FlightAware Approximate
08:50AM 19.0431 -74.6826 146° Southeast  Level FlightAware Approximate
08:51AM 18.9464 -74.6124 146° Southeast  Level FlightAware Approximate
08:52AM 18.8498 -74.5420 145° Southeast  Level FlightAware Approximate
08:53AM 18.7535 -74.4711 145° Southeast  Level FlightAware Approximate
08:54AM 18.6571 -74.4004 145° Southeast  Level FlightAware Approximate
08:55AM 18.5608 -74.3297 145° Southeast  Level FlightAware Approximate
08:56AM 18.4644 -74.2592 145° Southeast  Level FlightAware Approximate
08:57AM 18.3680 -74.1887 145° Southeast  Level FlightAware Approximate
08:58AM 18.2716 -74.1182 145° Southeast  Level FlightAware Approximate
08:59AM 18.1751 -74.0479 145° Southeast  Level FlightAware Approximate
09:00AM 18.0786 -73.9776 145° Southeast  Level FlightAware Approximate
09:01AM 17.9821 -73.9074 145° Southeast  Level FlightAware Approximate
09:02AM 17.8856 -73.8373 145° Southeast  Level FlightAware Approximate
09:03AM 17.7890 -73.7673 145° Southeast  Level FlightAware Approximate
09:04AM 17.6924 -73.6973 145° Southeast  Level FlightAware Approximate
09:05AM 17.5958 -73.6274 145° Southeast  Level FlightAware Approximate
09:06AM 17.4992 -73.5576 145° Southeast  Level FlightAware Approximate
09:07AM 17.4025 -73.4878 145° Southeast  Level FlightAware Approximate
09:08AM 17.3053 -73.4191 147° Southeast  Level FlightAware Approximate
09:09AM 17.2073 -73.3514 147° Southeast  Level FlightAware Approximate
09:10AM 17.1094 -73.2838 147° Southeast  Level FlightAware Approximate
09:11AM 17.0114 -73.2162 147° Southeast  Level FlightAware Approximate
09:12AM 16.9134 -73.1488 147° Southeast  Level FlightAware Approximate
09:13AM 16.8158 -73.0807 146° Southeast  Level FlightAware Approximate
09:14AM 16.7187 -73.0119 146° Southeast  Level FlightAware Approximate
09:15AM 16.6215 -72.9433 146° Southeast  Level FlightAware Approximate
09:16AM 16.5243 -72.8747 146° Southeast  Level FlightAware Approximate
09:17AM 16.4270 -72.8062 146° Southeast  Level FlightAware Approximate
09:18AM 16.3298 -72.7377 146° Southeast  Level FlightAware Approximate
09:19AM 16.2325 -72.6693 146° Southeast  Level FlightAware Approximate
09:20AM 16.1353 -72.6010 146° Southeast  Level FlightAware Approximate
09:21AM 16.0380 -72.5327 146° Southeast  Level FlightAware Approximate
09:22AM 15.9406 -72.4645 146° Southeast  Level FlightAware Approximate
09:23AM 15.8433 -72.3964 146° Southeast  Level FlightAware Approximate
09:24AM 15.7459 -72.3284 146° Southeast  Level FlightAware Approximate
09:25AM 15.6485 -72.2604 146° Southeast  Level FlightAware Approximate
09:26AM 15.5511 -72.1925 146° Southeast  Level FlightAware Approximate
09:27AM 15.4537 -72.1246 146° Southeast  Level FlightAware Approximate
09:28AM 15.3562 -72.0568 146° Southeast  Level FlightAware Approximate
09:29AM 15.2587 -71.9891 146° Southeast  Level FlightAware Approximate
09:30AM 15.1612 -71.9214 146° Southeast  Level FlightAware Approximate
09:31AM 15.0637 -71.8538 146° Southeast  Level FlightAware Approximate
09:32AM 14.9662 -71.7863 146° Southeast  Level FlightAware Approximate
09:33AM 14.8686 -71.7188 146° Southeast  Level FlightAware Approximate
09:34AM 14.7710 -71.6514 146° Southeast  Level FlightAware Approximate
09:35AM 14.6734 -71.5840 146° Southeast  Level FlightAware Approximate
09:36AM 14.5758 -71.5167 146° Southeast  Level FlightAware Approximate
09:37AM 14.4782 -71.4495 146° Southeast  Level FlightAware Approximate
09:38AM 14.3805 -71.3823 146° Southeast  Level FlightAware Approximate
09:39AM 14.2829 -71.3152 146° Southeast  Level FlightAware Approximate
09:40AM 14.1852 -71.2481 146° Southeast  Level FlightAware Approximate
09:41AM 14.0875 -71.1811 146° Southeast  Level FlightAware Approximate
09:42AM 13.9897 -71.1141 146° Southeast  Level FlightAware Approximate
09:43AM 13.8920 -71.0472 146° Southeast  Level FlightAware Approximate
09:44AM 13.7942 -70.9804 146° Southeast  Level FlightAware Approximate
09:45AM 13.6965 -70.9136 146° Southeast  Level FlightAware Approximate
09:46AM 13.5986 -70.8469 146° Southeast  Level FlightAware Approximate
09:47AM 13.5008 -70.7802 146° Southeast  Level FlightAware Approximate
09:48AM 13.4030 -70.7136 146° Southeast  Level FlightAware Approximate
09:49AM 13.3051 -70.6470 146° Southeast  Level FlightAware Approximate
09:50AM 13.2073 -70.5805 147° Southeast  Level FlightAware Approximate
09:51AM 13.1094 -70.5141 147° Southeast  Level FlightAware Approximate
09:52AM 13.0115 -70.4477 147° Southeast  Level FlightAware Approximate
09:53AM 12.9136 -70.3813 147° Southeast  Level FlightAware Approximate
09:54AM 12.8156 -70.3150 147° Southeast  Level FlightAware Approximate
09:55AM 12.7177 -70.2488 147° Southeast  Level FlightAware Approximate
09:56AM 12.6197 -70.1826 147° Southeast  Level FlightAware Approximate
09:57AM 12.5217 -70.1164 147° Southeast  Level FlightAware Approximate
09:58AM 12.4237 -70.0503 147° Southeast  Level FlightAware Approximate
09:59AM 12.3257 -69.9843 147° Southeast  Level FlightAware Approximate
10:00AM 12.2277 -69.9183 147° Southeast  Level FlightAware Approximate
10:01AM 12.1297 -69.8522 147° Southeast  Level FlightAware Approximate
10:02AM 12.0317 -69.7862 147° Southeast  Level FlightAware Approximate
10:03AM 11.9337 -69.7202 147° Southeast  Level FlightAware Approximate
10:04AM 11.8357 -69.6543 147° Southeast  Level FlightAware Approximate
10:05AM 11.7377 -69.5884 147° Southeast  Level FlightAware Approximate
10:06AM 11.6396 -69.5226 147° Southeast  Level FlightAware Approximate
10:07AM 11.5415 -69.4568 147° Southeast  Level FlightAware Approximate
10:08AM 11.4435 -69.3910 147° Southeast  Level FlightAware Approximate
10:09AM 11.3454 -69.3253 147° Southeast  Level FlightAware Approximate
10:10AM 11.2473 -69.2597 147° Southeast  Level FlightAware Approximate
10:11AM 11.1491 -69.1941 147° Southeast  Level FlightAware Approximate
10:12AM 11.0510 -69.1285 147° Southeast  Level FlightAware Approximate
10:13AM 10.9528 -69.0632 147° Southeast  Level FlightAware Approximate
10:14AM 10.8542 -68.9982 147° Southeast  Level FlightAware Approximate
10:15AM 10.7557 -68.9333 147° Southeast  Level FlightAware Approximate
10:16AM 10.6572 -68.8685 147° Southeast  Level FlightAware Approximate
10:17AM 10.5586 -68.8037 147° Southeast  Level FlightAware Approximate
10:18AM 10.4601 -68.7389 147° Southeast  Level FlightAware Approximate
10:19AM 10.3615 -68.6742 147° Southeast  Level FlightAware Approximate
10:20AM 10.2630 -68.6093 147° Southeast  Level FlightAware Approximate
10:21AM 10.1646 -68.5445 147° Southeast  Level FlightAware Approximate
10:22AM 10.0661 -68.4797 147° Southeast  Level FlightAware Approximate
10:23AM 9.9676 -68.4149 147° Southeast  Level FlightAware Approximate
10:24AM 9.8691 -68.3501 147° Southeast  Level FlightAware Approximate
10:25AM 9.7706 -68.2854 147° Southeast  Level FlightAware Approximate
10:26AM 9.6727 -68.2198 146° Southeast  Level FlightAware Approximate
10:27AM 9.5754 -68.1532 146° Southeast  Level FlightAware Approximate
10:28AM 9.4782 -68.0866 146° Southeast  Level FlightAware Approximate
10:29AM 9.3810 -68.0201 146° Southeast  Level FlightAware Approximate
10:30AM 9.2837 -67.9535 146° Southeast  Level FlightAware Approximate
10:31AM 9.1864 -67.8871 146° Southeast  Level FlightAware Approximate
10:32AM 9.0891 -67.8206 146° Southeast  Level FlightAware Approximate
10:33AM 8.9907 -67.7558 147° Southeast  Level FlightAware Approximate
10:34AM 8.8923 -67.6912 147° Southeast  Level FlightAware Approximate
10:35AM 8.7938 -67.6266 147° Southeast  Level FlightAware Approximate
10:36AM 8.6954 -67.5620 147° Southeast  Level FlightAware Approximate
10:37AM 8.5969 -67.4975 147° Southeast  Level FlightAware Approximate
10:38AM 8.4984 -67.4330 147° Southeast  Level FlightAware Approximate
10:39AM 8.3999 -67.3685 147° Southeast  Level FlightAware Approximate
10:40AM 8.3014 -67.3041 147° Southeast  Level FlightAware Approximate
10:41AM 8.2028 -67.2397 147° Southeast  Level FlightAware Approximate
10:42AM 8.1043 -67.1753 147° Southeast  Level FlightAware Approximate
10:43AM 8.0057 -67.1110 147° Southeast  Level FlightAware Approximate
10:44AM 7.9072 -67.0467 147° Southeast  Level FlightAware Approximate
10:45AM 7.8086 -66.9824 147° Southeast  Level FlightAware Approximate
10:46AM 7.7100 -66.9182 147° Southeast  Level FlightAware Approximate
10:47AM 7.6114 -66.8539 147° Southeast  Level FlightAware Approximate
10:48AM 7.5128 -66.7897 147° Southeast  Level FlightAware Approximate
10:49AM 7.4142 -66.7256 147° Southeast  Level FlightAware Approximate
10:50AM 7.3156 -66.6615 147° Southeast  Level FlightAware Approximate
10:51AM 7.2170 -66.5974 147° Southeast  Level FlightAware Approximate
10:52AM 7.1184 -66.5333 147° Southeast  Level FlightAware Approximate
10:53AM 7.0197 -66.4692 147° Southeast  Level FlightAware Approximate
10:54AM 6.9211 -66.4052 147° Southeast  Level FlightAware Approximate
10:55AM 6.8224 -66.3412 147° Southeast  Level FlightAware Approximate
10:56AM 6.7238 -66.2773 147° Southeast  Level FlightAware Approximate
10:57AM 6.6251 -66.2133 147° Southeast  Level FlightAware Approximate
10:58AM 6.5264 -66.1494 147° Southeast  Level FlightAware Approximate
10:59AM 6.4277 -66.0855 147° Southeast  Level FlightAware Approximate
11:00AM 6.3290 -66.0217 147° Southeast  Level FlightAware Approximate
11:01AM 6.2303 -65.9578 147° Southeast  Level FlightAware Approximate
11:02AM 6.1316 -65.8940 147° Southeast  Level FlightAware Approximate
11:03AM 6.0329 -65.8302 147° Southeast  Level FlightAware Approximate
11:04AM 5.9342 -65.7665 147° Southeast  Level FlightAware Approximate
11:05AM 5.8354 -65.7027 147° Southeast  Level FlightAware Approximate
11:06AM 5.7367 -65.6390 147° Southeast  Level FlightAware Approximate
11:07AM 5.6379 -65.5753 147° Southeast  Level FlightAware Approximate
11:08AM 5.5392 -65.5116 147° Southeast  Level FlightAware Approximate
11:09AM 5.4404 -65.4480 147° Southeast  Level FlightAware Approximate
11:10AM 5.3416 -65.3843 147° Southeast  Level FlightAware Approximate
11:11AM 5.2428 -65.3207 147° Southeast  Level FlightAware Approximate
11:12AM 5.1441 -65.2571 147° Southeast  Level FlightAware Approximate
11:13AM 5.0453 -65.1935 147° Southeast  Level FlightAware Approximate
11:14AM 4.9465 -65.1300 147° Southeast  Level FlightAware Approximate
11:15AM 4.8477 -65.0664 147° Southeast  Level FlightAware Approximate
11:16AM 4.7489 -65.0029 147° Southeast  Level FlightAware Approximate
11:17AM 4.6501 -64.9394 147° Southeast  Level FlightAware Approximate
11:18AM 4.5512 -64.8759 147° Southeast  Level FlightAware Approximate
11:19AM 4.4524 -64.8125 147° Southeast  Level FlightAware Approximate
11:20AM 4.3536 -64.7490 147° Southeast  Level FlightAware Approximate
11:21AM 4.2547 -64.6856 147° Southeast  Level FlightAware Approximate
11:22AM 4.1559 -64.6222 147° Southeast  Level FlightAware Approximate
11:23AM 4.0571 -64.5588 147° Southeast  Level FlightAware Approximate
11:24AM 3.9582 -64.4954 147° Southeast  Level FlightAware Approximate
11:25AM 3.8593 -64.4320 147° Southeast  Level FlightAware Approximate
11:26AM 3.7605 -64.3687 147° Southeast  Level FlightAware Approximate
11:27AM 3.6616 -64.3054 147° Southeast  Level FlightAware Approximate
11:28AM 3.5627 -64.2420 147° Southeast  Level FlightAware Approximate
11:29AM 3.4639 -64.1787 147° Southeast  Level FlightAware Approximate
11:30AM 3.3650 -64.1154 147° Southeast  Level FlightAware Approximate
11:31AM 3.2661 -64.0521 147° Southeast  Level FlightAware Approximate
11:32AM 3.1672 -63.9888 147° Southeast  Level FlightAware Approximate
11:33AM 3.0683 -63.9256 147° Southeast  Level FlightAware Approximate
11:34AM 2.9694 -63.8623 147° Southeast  Level FlightAware Approximate
11:35AM 2.8705 -63.7991 147° Southeast  Level FlightAware Approximate
11:36AM 2.7716 -63.7359 147° Southeast  Level FlightAware Approximate
11:37AM 2.6727 -63.6726 147° Southeast  Level FlightAware Approximate
11:38AM 2.5738 -63.6094 147° Southeast  Level FlightAware Approximate
11:39AM 2.4749 -63.5462 147° Southeast  Level FlightAware Approximate
11:40AM 2.3760 -63.4831 147° Southeast  Level FlightAware Approximate
11:41AM 2.2771 -63.4199 147° Southeast  Level FlightAware Approximate
11:42AM 2.1782 -63.3567 147° Southeast  Level FlightAware Approximate
11:43AM 2.0793 -63.2935 147° Southeast  Level FlightAware Approximate
11:44AM 1.9803 -63.2304 147° Southeast  Level FlightAware Approximate
11:45AM 1.8814 -63.1672 147° Southeast  Level FlightAware Approximate
11:46AM 1.7825 -63.1041 147° Southeast  Level FlightAware Approximate
11:47AM 1.6835 -63.0410 147° Southeast  Level FlightAware Approximate
11:48AM 1.5846 -62.9779 147° Southeast  Level FlightAware Approximate
11:49AM 1.4857 -62.9147 147° Southeast  Level FlightAware Approximate
11:50AM 1.3867 -62.8516 147° Southeast  Level FlightAware Approximate
11:51AM 1.2878 -62.7885 147° Southeast  Level FlightAware Approximate
11:52AM 1.1888 -62.7254 147° Southeast  Level FlightAware Approximate
11:53AM 1.0899 -62.6623 147° Southeast  Level FlightAware Approximate
11:54AM 0.9910 -62.5992 147° Southeast  Level FlightAware Approximate
11:55AM 0.8920 -62.5361 147° Southeast  Level FlightAware Approximate
11:56AM 0.7931 -62.4730 147° Southeast  Level FlightAware Approximate
11:57AM 0.6941 -62.4100 147° Southeast  Level FlightAware Approximate
11:58AM 0.5952 -62.3469 147° Southeast  Level FlightAware Approximate
11:59AM 0.4962 -62.2838 147° Southeast  Level FlightAware Approximate
12:00PM 0.3973 -62.2207 147° Southeast  Level FlightAware Approximate
12:01PM 0.2983 -62.1576 147° Southeast  Level FlightAware Approximate
12:02PM 0.1994 -62.0946 147° Southeast  Level FlightAware Approximate
12:03PM 0.1004 -62.0315 147° Southeast  Level FlightAware Approximate
12:04PM 0.0015 -61.9684 147° Southeast  Level FlightAware Approximate
12:05PM -0.0975 -61.9053 147° Southeast  Level FlightAware Approximate
12:06PM -0.1964 -61.8423 147° Southeast  Level FlightAware Approximate
12:07PM -0.2954 -61.7792 147° Southeast  Level FlightAware Approximate
12:08PM -0.3943 -61.7161 147° Southeast  Level FlightAware Approximate
12:09PM -0.4933 -61.6530 147° Southeast  Level FlightAware Approximate
12:10PM -0.5922 -61.5900 147° Southeast  Level FlightAware Approximate
12:11PM -0.6912 -61.5269 147° Southeast  Level FlightAware Approximate
12:12PM -0.7902 -61.4641 148° Southeast  Level FlightAware Approximate
12:13PM -0.8895 -61.4014 148° Southeast  Level FlightAware Approximate
12:14PM -0.9887 -61.3387 148° Southeast  Level FlightAware Approximate
12:15PM -1.0884 -61.2770 149° Southeast  Level FlightAware Approximate
12:16PM -1.1890 -61.2166 149° Southeast  Level FlightAware Approximate
12:17PM -1.2864 -61.1512 145° Southeast  Level FlightAware Approximate
12:18PM -1.3826 -61.0839 145° Southeast  Level FlightAware Approximate
12:19PM -1.4855 -61.0278 148° Southeast  Level FlightAware Approximate
12:20PM -1.5850 -60.9656 148° Southeast  Level FlightAware Approximate
12:21PM -1.6845 -60.9034 148° Southeast  Level FlightAware Approximate
12:22PM -1.7828 -60.8392 146° Southeast  Level FlightAware Approximate
12:23PM -1.8804 -60.7742 146° Southeast  Level FlightAware Approximate
12:24PM -1.9782 -60.7092 147° Southeast  Level FlightAware Approximate
12:25PM -2.0765 -60.6451 147° Southeast  Level FlightAware Approximate
12:26PM -2.1748 -60.5810 147° Southeast  Level FlightAware Approximate
12:27PM -2.2731 -60.5168 147° Southeast  Level FlightAware Approximate
12:28PM -2.3717 -60.4531 148° Southeast  Level FlightAware Approximate
12:29PM -2.4712 -60.3909 148° Southeast  Level FlightAware Approximate
12:30PM -2.5703 -60.3280 148° Southeast  Level FlightAware Approximate
12:31PM -2.6694 -60.2651 151° Southeast  Level FlightAware Approximate
12:32PM -2.7720 -60.2081 151° Southeast  Level FlightAware Approximate
12:33PM -2.8672 -60.1414 153° Southeast  Level FlightAware Approximate
12:34PM -2.9643 -60.0762 153° Southeast  Level FlightAware Approximate
12:35PM -3.0167 -60.0500 153° Southeast  Level FlightAware Approximate
12:36PM -3.0386 -60.0497 153° Southeast  Level Estimated
12:37PM -3.0386 -60.0497 153° Southeast  Level Estimated
12:38PM -3.0386 -60.0497 153° Southeast  Level Estimated
12:39PM -3.0386 -60.0497 153° Southeast  Level Estimated
12:40PM -3.0386 -60.0497 153° Southeast  Level Estimated
12:41PM -3.0386 -60.0497 153° Southeast  Level Estimated
12:42PM -3.0386 -60.0497 153° Southeast  Level Estimated
12:43PM -3.0386 -60.0497 153° Southeast  Level Estimated
12:44PM -3.0386 -60.0497 153° Southeast  Level Estimated
12:45PM -3.0386 -60.0497 153° Southeast  Level Estimated
12:46PM -3.0386 -60.0497 153° Southeast  Level Estimated